sensor_id;sensor_type;location;lat;lon;timestamp;pressure;altitude;pressure_sealevel;temperature
70668;BMP280;58242;51.250;-1.118;2024-02-26T00:00:05;98222.44;;;10.77
70668;BMP280;58242;51.250;-1.118;2024-02-26T00:02:37;98223.56;;;10.76
70668;BMP280;58242;51.250;-1.118;2024-02-26T00:05:07;98226.66;;;10.77
70668;BMP280;58242;51.250;-1.118;2024-02-26T00:07:32;98222.47;;;10.80
70668;BMP280;58242;51.250;-1.118;2024-02-26T00:09:58;98238.91;;;10.82
70668;BMP280;58242;51.250;-1.118;2024-02-26T00:12:23;98240.84;;;10.81
70668;BMP280;58242;51.250;-1.118;2024-02-26T00:14:48;98252.66;;;10.80
70668;BMP280;58242;51.250;-1.118;2024-02-26T00:17:14;98266.38;;;10.79
70668;BMP280;58242;51.250;-1.118;2024-02-26T00:19:40;98261.03;;;10.79
70668;BMP280;58242;51.250;-1.118;2024-02-26T00:22:05;98264.06;;;10.77
70668;BMP280;58242;51.250;-1.118;2024-02-26T00:24:31;98271.72;;;10.79
70668;BMP280;58242;51.250;-1.118;2024-02-26T00:26:56;98275.56;;;10.81
70668;BMP280;58242;51.250;-1.118;2024-02-26T00:29:21;98280.91;;;10.81
70668;BMP280;58242;51.250;-1.118;2024-02-26T00:31:47;98286.66;;;10.83
70668;BMP280;58242;51.250;-1.118;2024-02-26T00:34:12;98286.66;;;10.83
70668;BMP280;58242;51.250;-1.118;2024-02-26T00:36:38;98305.00;;;10.85
70668;BMP280;58242;51.250;-1.118;2024-02-26T00:39:03;98303.84;;;10.86
70668;BMP280;58242;51.250;-1.118;2024-02-26T00:41:29;98298.50;;;10.86
70668;BMP280;58242;51.250;-1.118;2024-02-26T00:43:54;98301.56;;;10.84
70668;BMP280;58242;51.250;-1.118;2024-02-26T00:46:20;98311.47;;;10.84
70668;BMP280;58242;51.250;-1.118;2024-02-26T00:48:45;98317.19;;;10.86
70668;BMP280;58242;51.250;-1.118;2024-02-26T00:51:11;98318.38;;;10.85
70668;BMP280;58242;51.250;-1.118;2024-02-26T00:53:36;98322.56;;;10.86
70668;BMP280;58242;51.250;-1.118;2024-02-26T00:56:01;98329.81;;;10.85
70668;BMP280;58242;51.250;-1.118;2024-02-26T00:58:27;98329.06;;;10.85
70668;BMP280;58242;51.250;-1.118;2024-02-26T01:00:52;98342.41;;;10.85
70668;BMP280;58242;51.250;-1.118;2024-02-26T01:03:18;98360.75;;;10.86
70668;BMP280;58242;51.250;-1.118;2024-02-26T01:05:44;98344.69;;;10.86
70668;BMP280;58242;51.250;-1.118;2024-02-26T01:08:10;98358.84;;;10.87
70668;BMP280;58242;51.250;-1.118;2024-02-26T01:10:35;98361.16;;;10.88
70668;BMP280;58242;51.250;-1.118;2024-02-26T01:13:01;98366.53;;;10.92
70668;BMP280;58242;51.250;-1.118;2024-02-26T01:15:26;98379.16;;;10.94
70668;BMP280;58242;51.250;-1.118;2024-02-26T01:17:52;98366.97;;;10.97
70668;BMP280;58242;51.250;-1.118;2024-02-26T01:20:17;98372.75;;;10.99
70668;BMP280;58242;51.250;-1.118;2024-02-26T01:22:44;98384.56;;;10.98
70668;BMP280;58242;51.250;-1.118;2024-02-26T01:25:09;98393.34;;;10.98
70668;BMP280;58242;51.250;-1.118;2024-02-26T01:27:36;98396.03;;;10.98
70668;BMP280;58242;51.250;-1.118;2024-02-26T01:30:05;98393.78;;;11.00
70668;BMP280;58242;51.250;-1.118;2024-02-26T01:32:31;98407.78;;;10.94
70668;BMP280;58242;51.250;-1.118;2024-02-26T01:34:57;98405.94;;;10.98
70668;BMP280;58242;51.250;-1.118;2024-02-26T01:37:22;98412.47;;;11.00
70668;BMP280;58242;51.250;-1.118;2024-02-26T01:39:48;98423.56;;;11.02
70668;BMP280;58242;51.250;-1.118;2024-02-26T01:42:13;98433.13;;;11.03
70668;BMP280;58242;51.250;-1.118;2024-02-26T01:44:38;98433.13;;;11.03
70668;BMP280;58242;51.250;-1.118;2024-02-26T01:47:05;98434.66;;;11.04
70668;BMP280;58242;51.250;-1.118;2024-02-26T01:49:33;98452.63;;;11.04
70668;BMP280;58242;51.250;-1.118;2024-02-26T01:52:00;98457.59;;;11.05
70668;BMP280;58242;51.250;-1.118;2024-02-26T01:54:27;98456.81;;;11.05
70668;BMP280;58242;51.250;-1.118;2024-02-26T01:56:53;98454.13;;;11.05
70668;BMP280;58242;51.250;-1.118;2024-02-26T01:59:18;98458.78;;;11.08
70668;BMP280;58242;51.250;-1.118;2024-02-26T02:01:47;98477.09;;;11.09
70668;BMP280;58242;51.250;-1.118;2024-02-26T02:04:13;98479.69;;;11.02
70668;BMP280;58242;51.250;-1.118;2024-02-26T02:06:41;98493.88;;;11.06
70668;BMP280;58242;51.250;-1.118;2024-02-26T02:09:08;98490.09;;;11.07
70668;BMP280;58242;51.250;-1.118;2024-02-26T02:11:33;98497.72;;;11.09
70668;BMP280;58242;51.250;-1.118;2024-02-26T02:13:59;98506.53;;;11.09
70668;BMP280;58242;51.250;-1.118;2024-02-26T02:16:24;98503.50;;;11.11
70668;BMP280;58242;51.250;-1.118;2024-02-26T02:18:50;98504.28;;;11.11
70668;BMP280;58242;51.250;-1.118;2024-02-26T02:21:15;98509.63;;;11.11
70668;BMP280;58242;51.250;-1.118;2024-02-26T02:23:40;98511.13;;;11.12
70668;BMP280;58242;51.250;-1.118;2024-02-26T02:26:11;98516.56;;;11.15
70668;BMP280;58242;51.250;-1.118;2024-02-26T02:28:37;98517.31;;;11.16
70668;BMP280;58242;51.250;-1.118;2024-02-26T02:31:02;98526.88;;;11.17
70668;BMP280;58242;51.250;-1.118;2024-02-26T02:33:29;98531.50;;;11.20
70668;BMP280;58242;51.250;-1.118;2024-02-26T02:35:54;98533.03;;;11.21
70668;BMP280;58242;51.250;-1.118;2024-02-26T02:38:20;98538.75;;;11.19
70668;BMP280;58242;51.250;-1.118;2024-02-26T02:40:46;98541.06;;;11.21
70668;BMP280;58242;51.250;-1.118;2024-02-26T02:43:11;98542.19;;;11.20
70668;BMP280;58242;51.250;-1.118;2024-02-26T02:45:36;98546.00;;;11.19
70668;BMP280;58242;51.250;-1.118;2024-02-26T02:48:02;98554.38;;;11.17
70668;BMP280;58242;51.250;-1.118;2024-02-26T02:50:27;98547.50;;;11.16
70668;BMP280;58242;51.250;-1.118;2024-02-26T02:52:54;98563.19;;;11.18
70668;BMP280;58242;51.250;-1.118;2024-02-26T02:55:19;98560.91;;;11.20
70668;BMP280;58242;51.250;-1.118;2024-02-26T02:57:45;98560.91;;;11.20
70668;BMP280;58242;51.250;-1.118;2024-02-26T03:00:11;98590.75;;;11.22
70668;BMP280;58242;51.250;-1.118;2024-02-26T03:02:36;98580.03;;;11.22
70668;BMP280;58242;51.250;-1.118;2024-02-26T03:05:05;98581.59;;;11.23
70668;BMP280;58242;51.250;-1.118;2024-02-26T03:07:30;98588.06;;;11.22
70668;BMP280;58242;51.250;-1.118;2024-02-26T03:09:56;98612.91;;;11.22
70668;BMP280;58242;51.250;-1.118;2024-02-26T03:12:21;98594.97;;;11.23
70668;BMP280;58242;51.250;-1.118;2024-02-26T03:14:47;98607.19;;;11.24
70668;BMP280;58242;51.250;-1.118;2024-02-26T03:17:12;98609.09;;;11.23
70668;BMP280;58242;51.250;-1.118;2024-02-26T03:19:37;98610.63;;;11.24
70668;BMP280;58242;51.250;-1.118;2024-02-26T03:22:03;98626.69;;;11.24
70668;BMP280;58242;51.250;-1.118;2024-02-26T03:24:28;98622.88;;;11.25
70668;BMP280;58242;51.250;-1.118;2024-02-26T03:26:54;98632.81;;;11.25
70668;BMP280;58242;51.250;-1.118;2024-02-26T03:29:19;98633.16;;;11.23
70668;BMP280;58242;51.250;-1.118;2024-02-26T03:31:44;98663.34;;;11.24
70668;BMP280;58242;51.250;-1.118;2024-02-26T03:34:10;98645.00;;;11.22
70668;BMP280;58242;51.250;-1.118;2024-02-26T03:36:37;98661.41;;;11.21
70668;BMP280;58242;51.250;-1.118;2024-02-26T03:39:03;98669.44;;;11.21
70668;BMP280;58242;51.250;-1.118;2024-02-26T03:41:35;98672.53;;;11.23
70668;BMP280;58242;51.250;-1.118;2024-02-26T03:44:01;98686.28;;;11.25
70668;BMP280;58242;51.250;-1.118;2024-02-26T03:46:26;98683.22;;;11.23
70668;BMP280;58242;51.250;-1.118;2024-02-26T03:48:52;98683.63;;;11.25
70668;BMP280;58242;51.250;-1.118;2024-02-26T03:51:17;98694.31;;;11.25
70668;BMP280;58242;51.250;-1.118;2024-02-26T03:53:43;98700.00;;;11.23
70668;BMP280;58242;51.250;-1.118;2024-02-26T03:56:11;98707.63;;;11.21
70668;BMP280;58242;51.250;-1.118;2024-02-26T03:58:36;98722.09;;;11.17
70668;BMP280;58242;51.250;-1.118;2024-02-26T04:01:02;98717.84;;;11.16
70668;BMP280;58242;51.250;-1.118;2024-02-26T04:03:27;98733.16;;;11.15
70668;BMP280;58242;51.250;-1.118;2024-02-26T04:05:53;98742.31;;;11.14
70668;BMP280;58242;51.250;-1.118;2024-02-26T04:08:18;98739.63;;;11.14
70668;BMP280;58242;51.250;-1.118;2024-02-26T04:10:43;98742.66;;;11.13
70668;BMP280;58242;51.250;-1.118;2024-02-26T04:13:09;98743.03;;;11.11
70668;BMP280;58242;51.250;-1.118;2024-02-26T04:15:34;98757.13;;;11.12
70668;BMP280;58242;51.250;-1.118;2024-02-26T04:17:59;98768.59;;;11.12
70668;BMP280;58242;51.250;-1.118;2024-02-26T04:20:25;98774.38;;;11.14
70668;BMP280;58242;51.250;-1.118;2024-02-26T04:22:50;98777.41;;;11.13
70668;BMP280;58242;51.250;-1.118;2024-02-26T04:25:15;98778.53;;;11.12
70668;BMP280;58242;51.250;-1.118;2024-02-26T04:27:41;98793.81;;;11.11
70668;BMP280;58242;51.250;-1.118;2024-02-26T04:30:07;98789.94;;;11.09
70668;BMP280;58242;51.250;-1.118;2024-02-26T04:32:32;98792.22;;;11.07
70668;BMP280;58242;51.250;-1.118;2024-02-26T04:34:59;98805.16;;;11.05
70668;BMP280;58242;51.250;-1.118;2024-02-26T04:37:24;98808.19;;;11.04
70668;BMP280;58242;51.250;-1.118;2024-02-26T04:39:50;98813.88;;;11.02
70668;BMP280;58242;51.250;-1.118;2024-02-26T04:42:15;98811.22;;;11.02
70668;BMP280;58242;51.250;-1.118;2024-02-26T04:44:40;98813.13;;;11.02
70668;BMP280;58242;51.250;-1.118;2024-02-26T04:47:06;98836.78;;;11.00
70668;BMP280;58242;51.250;-1.118;2024-02-26T04:49:32;98828.38;;;11.01
70668;BMP280;58242;51.250;-1.118;2024-02-26T04:51:59;98850.97;;;11.04
70668;BMP280;58242;51.250;-1.118;2024-02-26T04:54:24;98848.66;;;11.02
70668;BMP280;58242;51.250;-1.118;2024-02-26T04:56:49;98846.81;;;11.06
70668;BMP280;58242;51.250;-1.118;2024-02-26T04:59:15;98865.88;;;11.05
70668;BMP280;58242;51.250;-1.118;2024-02-26T05:01:40;98865.88;;;11.05
70668;BMP280;58242;51.250;-1.118;2024-02-26T05:04:06;98878.47;;;11.04
70668;BMP280;58242;51.250;-1.118;2024-02-26T05:06:32;98852.50;;;11.05
70668;BMP280;58242;51.250;-1.118;2024-02-26T05:08:58;98883.13;;;11.07
70668;BMP280;58242;51.250;-1.118;2024-02-26T05:11:24;98885.44;;;11.09
70668;BMP280;58242;51.250;-1.118;2024-02-26T05:13:49;98900.34;;;11.10
70668;BMP280;58242;51.250;-1.118;2024-02-26T05:16:14;98906.81;;;11.09
70668;BMP280;58242;51.250;-1.118;2024-02-26T05:18:40;98904.53;;;11.07
70668;BMP280;58242;51.250;-1.118;2024-02-26T05:21:05;98911.75;;;11.07
70668;BMP280;58242;51.250;-1.118;2024-02-26T05:23:30;98919.00;;;11.06
70668;BMP280;58242;51.250;-1.118;2024-02-26T05:25:56;98925.06;;;11.03
70668;BMP280;58242;51.250;-1.118;2024-02-26T05:28:21;98927.75;;;11.03
70668;BMP280;58242;51.250;-1.118;2024-02-26T05:30:47;98947.22;;;11.04
70668;BMP280;58242;51.250;-1.118;2024-02-26T05:33:13;98949.13;;;11.03
70668;BMP280;58242;51.250;-1.118;2024-02-26T05:35:38;98953.31;;;11.04
70668;BMP280;58242;51.250;-1.118;2024-02-26T05:38:04;98973.97;;;11.04
70668;BMP280;58242;51.250;-1.118;2024-02-26T05:40:29;98959.81;;;11.03
70668;BMP280;58242;51.250;-1.118;2024-02-26T05:42:55;98978.53;;;11.03
70668;BMP280;58242;51.250;-1.118;2024-02-26T05:45:21;98982.34;;;11.02
70668;BMP280;58242;51.250;-1.118;2024-02-26T05:47:47;98999.50;;;11.01
70668;BMP280;58242;51.250;-1.118;2024-02-26T05:50:12;98997.53;;;10.98
70668;BMP280;58242;51.250;-1.118;2024-02-26T05:52:38;99003.22;;;10.97
70668;BMP280;58242;51.250;-1.118;2024-02-26T05:55:04;99008.94;;;10.95
70668;BMP280;58242;51.250;-1.118;2024-02-26T05:57:31;99006.66;;;10.97
70668;BMP280;58242;51.250;-1.118;2024-02-26T05:59:56;99011.66;;;10.99
70668;BMP280;58242;51.250;-1.118;2024-02-26T06:02:21;99031.94;;;11.00
70668;BMP280;58242;51.250;-1.118;2024-02-26T06:04:47;99013.56;;;10.98
70668;BMP280;58242;51.250;-1.118;2024-02-26T06:07:12;99033.00;;;10.95
70668;BMP280;58242;51.250;-1.118;2024-02-26T06:09:37;99041.78;;;10.96
70668;BMP280;58242;51.250;-1.118;2024-02-26T06:12:03;99036.00;;;10.94
70668;BMP280;58242;51.250;-1.118;2024-02-26T06:14:28;99054.72;;;10.94
70668;BMP280;58242;51.250;-1.118;2024-02-26T06:16:54;99065.41;;;10.94
70668;BMP280;58242;51.250;-1.118;2024-02-26T06:19:19;99079.91;;;10.93
70668;BMP280;58242;51.250;-1.118;2024-02-26T06:21:44;99076.47;;;10.93
70668;BMP280;58242;51.250;-1.118;2024-02-26T06:24:10;99081.81;;;10.93
70668;BMP280;58242;51.250;-1.118;2024-02-26T06:26:35;99104.31;;;10.92
70668;BMP280;58242;51.250;-1.118;2024-02-26T06:29:00;99093.63;;;10.92
70668;BMP280;58242;51.250;-1.118;2024-02-26T06:31:26;99089.84;;;10.93
70668;BMP280;58242;51.250;-1.118;2024-02-26T06:33:53;99106.28;;;10.94
70668;BMP280;58242;51.250;-1.118;2024-02-26T06:36:19;99099.81;;;10.95
70668;BMP280;58242;51.250;-1.118;2024-02-26T06:38:44;99118.97;;;10.97
70668;BMP280;58242;51.250;-1.118;2024-02-26T06:41:09;99123.53;;;10.97
70668;BMP280;58242;51.250;-1.118;2024-02-26T06:43:35;99136.16;;;10.96
70668;BMP280;58242;51.250;-1.118;2024-02-26T06:46:00;99134.22;;;10.97
70668;BMP280;58242;51.250;-1.118;2024-02-26T06:48:25;99150.97;;;10.94
70668;BMP280;58242;51.250;-1.118;2024-02-26T06:50:51;99141.75;;;10.92
70668;BMP280;58242;51.250;-1.118;2024-02-26T06:53:16;99155.91;;;10.92
70668;BMP280;58242;51.250;-1.118;2024-02-26T06:55:42;99164.69;;;10.93
70668;BMP280;58242;51.250;-1.118;2024-02-26T06:58:08;99174.25;;;10.93
70668;BMP280;58242;51.250;-1.118;2024-02-26T07:00:34;99173.13;;;10.94
70668;BMP280;58242;51.250;-1.118;2024-02-26T07:02:59;99183.50;;;10.96
70668;BMP280;58242;51.250;-1.118;2024-02-26T07:05:25;99194.53;;;10.94
70668;BMP280;58242;51.250;-1.118;2024-02-26T07:07:50;99209.00;;;10.93
70668;BMP280;58242;51.250;-1.118;2024-02-26T07:10:16;99221.25;;;10.94
70668;BMP280;58242;51.250;-1.118;2024-02-26T07:12:41;99217.47;;;10.95
70668;BMP280;58242;51.250;-1.118;2024-02-26T07:15:07;99233.50;;;10.95
70668;BMP280;58242;51.250;-1.118;2024-02-26T07:17:33;99228.94;;;10.96
70668;BMP280;58242;51.250;-1.118;2024-02-26T07:20:02;99239.97;;;10.94
70668;BMP280;58242;51.250;-1.118;2024-02-26T07:22:30;99246.34;;;10.90
70668;BMP280;58242;51.250;-1.118;2024-02-26T07:24:56;99255.94;;;10.91
70668;BMP280;58242;51.250;-1.118;2024-02-26T07:27:21;99249.81;;;10.91
70668;BMP280;58242;51.250;-1.118;2024-02-26T07:29:47;99255.59;;;10.93
70668;BMP280;58242;51.250;-1.118;2024-02-26T07:32:12;99270.16;;;10.95
70668;BMP280;58242;51.250;-1.118;2024-02-26T07:34:38;99279.75;;;10.96
70668;BMP280;58242;51.250;-1.118;2024-02-26T07:37:07;99295.88;;;10.99
70668;BMP280;58242;51.250;-1.118;2024-02-26T07:39:32;99297.84;;;11.02
70668;BMP280;58242;51.250;-1.118;2024-02-26T07:41:57;99290.25;;;11.04
70668;BMP280;58242;51.250;-1.118;2024-02-26T07:44:23;99296.38;;;11.05
70668;BMP280;58242;51.250;-1.118;2024-02-26T07:46:48;99297.16;;;11.05
70668;BMP280;58242;51.250;-1.118;2024-02-26T07:49:13;99323.56;;;11.07
70668;BMP280;58242;51.250;-1.118;2024-02-26T07:51:39;99335.72;;;11.04
70668;BMP280;58242;51.250;-1.118;2024-02-26T07:54:04;99325.38;;;11.03
70668;BMP280;58242;51.250;-1.118;2024-02-26T07:56:29;99330.72;;;11.03
70668;BMP280;58242;51.250;-1.118;2024-02-26T07:58:55;99336.94;;;11.07
70668;BMP280;58242;51.250;-1.118;2024-02-26T08:01:20;99340.81;;;11.09
70668;BMP280;58242;51.250;-1.118;2024-02-26T08:03:45;99338.22;;;11.12
70668;BMP280;58242;51.250;-1.118;2024-02-26T08:06:11;99352.94;;;11.18
70668;BMP280;58242;51.250;-1.118;2024-02-26T08:08:36;99360.34;;;11.25
70668;BMP280;58242;51.250;-1.118;2024-02-26T08:11:02;99345.53;;;11.27
70668;BMP280;58242;51.250;-1.118;2024-02-26T08:13:27;99362.03;;;11.29
70668;BMP280;58242;51.250;-1.118;2024-02-26T08:15:52;99349.06;;;11.31
70668;BMP280;58242;51.250;-1.118;2024-02-26T08:18:18;99369.44;;;11.35
70668;BMP280;58242;51.250;-1.118;2024-02-26T08:20:44;99357.72;;;11.40
70668;BMP280;58242;51.250;-1.118;2024-02-26T08:23:10;99386.53;;;11.46
70668;BMP280;58242;51.250;-1.118;2024-02-26T08:25:35;99380.16;;;11.50
70668;BMP280;58242;51.250;-1.118;2024-02-26T08:28:00;99374.22;;;11.57
70668;BMP280;58242;51.250;-1.118;2024-02-26T08:30:26;99371.25;;;11.62
70668;BMP280;58242;51.250;-1.118;2024-02-26T08:32:51;99390.44;;;11.63
70668;BMP280;58242;51.250;-1.118;2024-02-26T08:35:17;99396.91;;;11.63
70668;BMP280;58242;51.250;-1.118;2024-02-26T08:37:46;99404.16;;;11.62
70668;BMP280;58242;51.250;-1.118;2024-02-26T08:40:12;99407.28;;;11.64
70668;BMP280;58242;51.250;-1.118;2024-02-26T08:42:37;99404.25;;;11.65
70668;BMP280;58242;51.250;-1.118;2024-02-26T08:45:02;99419.19;;;11.66
70668;BMP280;58242;51.250;-1.118;2024-02-26T08:47:28;99414.25;;;11.68
70668;BMP280;58242;51.250;-1.118;2024-02-26T08:49:54;99419.72;;;11.72
70668;BMP280;58242;51.250;-1.118;2024-02-26T08:52:19;99434.31;;;11.74
70668;BMP280;58242;51.250;-1.118;2024-02-26T08:54:45;99440.88;;;11.77
70668;BMP280;58242;51.250;-1.118;2024-02-26T08:57:10;99433.69;;;11.80
70668;BMP280;58242;51.250;-1.118;2024-02-26T08:59:35;99430.00;;;11.85
70668;BMP280;58242;51.250;-1.118;2024-02-26T09:02:00;99446.91;;;11.89
70668;BMP280;58242;51.250;-1.118;2024-02-26T09:04:26;99434.72;;;11.91
70668;BMP280;58242;51.250;-1.118;2024-02-26T09:06:52;99451.59;;;11.92
70668;BMP280;58242;51.250;-1.118;2024-02-26T09:09:17;99449.34;;;11.94
70668;BMP280;58242;51.250;-1.118;2024-02-26T09:11:43;99449.44;;;11.97
70668;BMP280;58242;51.250;-1.118;2024-02-26T09:14:08;99464.47;;;12.01
70668;BMP280;58242;51.250;-1.118;2024-02-26T09:16:34;99459.53;;;12.03
70668;BMP280;58242;51.250;-1.118;2024-02-26T09:18:59;99481.66;;;12.00
70668;BMP280;58242;51.250;-1.118;2024-02-26T09:21:24;99485.44;;;11.99
70668;BMP280;58242;51.250;-1.118;2024-02-26T09:23:50;99493.06;;;11.97
70668;BMP280;58242;51.250;-1.118;2024-02-26T09:26:16;99497.97;;;11.96
70668;BMP280;58242;51.250;-1.118;2024-02-26T09:28:42;99501.09;;;11.97
70668;BMP280;58242;51.250;-1.118;2024-02-26T09:31:07;99501.53;;;11.99
70668;BMP280;58242;51.250;-1.118;2024-02-26T09:33:33;99519.94;;;12.01
70668;BMP280;58242;51.250;-1.118;2024-02-26T09:35:58;99515.00;;;12.03
70668;BMP280;58242;51.250;-1.118;2024-02-26T09:38:26;99521.59;;;12.05
70668;BMP280;58242;51.250;-1.118;2024-02-26T09:40:51;99529.53;;;12.02
70668;BMP280;58242;51.250;-1.118;2024-02-26T09:43:17;99531.44;;;12.01
70668;BMP280;58242;51.250;-1.118;2024-02-26T09:45:44;99544.81;;;12.01
70668;BMP280;58242;51.250;-1.118;2024-02-26T09:48:10;99540.59;;;12.00
70668;BMP280;58242;51.250;-1.118;2024-02-26T09:50:39;99543.59;;;11.99
70668;BMP280;58242;51.250;-1.118;2024-02-26T09:53:06;99551.22;;;11.97
70668;BMP280;58242;51.250;-1.118;2024-02-26T09:55:35;99559.25;;;11.97
70668;BMP280;58242;51.250;-1.118;2024-02-26T09:58:01;99561.13;;;11.97
70668;BMP280;58242;51.250;-1.118;2024-02-26T10:00:30;99553.09;;;11.97
70668;BMP280;58242;51.250;-1.118;2024-02-26T10:03:02;99563.56;;;12.01
70668;BMP280;58242;51.250;-1.118;2024-02-26T10:05:29;99563.66;;;12.05
70668;BMP280;58242;51.250;-1.118;2024-02-26T10:07:56;99578.72;;;12.09
70668;BMP280;58242;51.250;-1.118;2024-02-26T10:10:23;99584.94;;;12.13
70668;BMP280;58242;51.250;-1.118;2024-02-26T10:12:48;99563.91;;;12.15
70668;BMP280;58242;51.250;-1.118;2024-02-26T10:15:13;99580.44;;;12.17
70668;BMP280;58242;51.250;-1.118;2024-02-26T10:17:39;99595.38;;;12.18
70668;BMP280;58242;51.250;-1.118;2024-02-26T10:20:18;99600.06;;;12.21
70668;BMP280;58242;51.250;-1.118;2024-02-26T10:22:47;99610.00;;;12.20
70668;BMP280;58242;51.250;-1.118;2024-02-26T10:25:12;99613.03;;;12.19
70668;BMP280;58242;51.250;-1.118;2024-02-26T10:27:40;99612.94;;;12.15
70668;BMP280;58242;51.250;-1.118;2024-02-26T10:30:22;99618.97;;;12.13
70668;BMP280;58242;51.250;-1.118;2024-02-26T10:32:48;99631.22;;;12.13
70668;BMP280;58242;51.250;-1.118;2024-02-26T10:35:17;99623.56;;;12.12
70668;BMP280;58242;51.250;-1.118;2024-02-26T10:37:43;99627.03;;;12.13
70668;BMP280;58242;51.250;-1.118;2024-02-26T10:40:10;99632.81;;;12.14
70668;BMP280;58242;51.250;-1.118;2024-02-26T10:42:36;99632.09;;;12.17
70668;BMP280;58242;51.250;-1.118;2024-02-26T10:45:01;99627.19;;;12.19
70668;BMP280;58242;51.250;-1.118;2024-02-26T10:47:28;99643.38;;;12.23
70668;BMP280;58242;51.250;-1.118;2024-02-26T10:49:54;99641.03;;;12.21
70668;BMP280;58242;51.250;-1.118;2024-02-26T10:52:22;99653.31;;;12.22
70668;BMP280;58242;51.250;-1.118;2024-02-26T10:54:53;99656.75;;;12.23
70668;BMP280;58242;51.250;-1.118;2024-02-26T10:57:19;99649.94;;;12.25
70668;BMP280;58242;51.250;-1.118;2024-02-26T10:59:46;99669.13;;;12.27
70668;BMP280;58242;51.250;-1.118;2024-02-26T11:02:13;99672.25;;;12.29
70668;BMP280;58242;51.250;-1.118;2024-02-26T11:04:39;99666.31;;;12.35
70668;BMP280;58242;51.250;-1.118;2024-02-26T11:07:05;99681.44;;;12.43
70668;BMP280;58242;51.250;-1.118;2024-02-26T11:09:32;99695.91;;;12.54
70668;BMP280;58242;51.250;-1.118;2024-02-26T11:11:58;99682.09;;;12.67
70668;BMP280;58242;51.250;-1.118;2024-02-26T11:14:26;99690.59;;;12.84
70668;BMP280;58242;51.250;-1.118;2024-02-26T11:16:51;99702.09;;;13.00
70668;BMP280;58242;51.250;-1.118;2024-02-26T11:19:18;99692.41;;;13.10
70668;BMP280;58242;51.250;-1.118;2024-02-26T11:21:43;99712.44;;;13.31
70668;BMP280;58242;51.250;-1.118;2024-02-26T11:24:12;99696.19;;;13.58
70668;BMP280;58242;51.250;-1.118;2024-02-26T11:26:58;99706.25;;;13.94
70668;BMP280;58242;51.250;-1.118;2024-02-26T11:29:33;99703.47;;;14.28
70668;BMP280;58242;51.250;-1.118;2024-02-26T11:32:00;99688.84;;;14.66
70668;BMP280;58242;51.250;-1.118;2024-02-26T11:34:26;99708.16;;;14.93
70668;BMP280;58242;51.250;-1.118;2024-02-26T11:36:52;99714.72;;;15.17
70668;BMP280;58242;51.250;-1.118;2024-02-26T11:39:18;99719.34;;;15.42
70668;BMP280;58242;51.250;-1.118;2024-02-26T11:41:43;99726.34;;;15.72
70668;BMP280;58242;51.250;-1.118;2024-02-26T11:44:09;99710.47;;;15.92
70668;BMP280;58242;51.250;-1.118;2024-02-26T11:46:41;99714.91;;;16.07
70668;BMP280;58242;51.250;-1.118;2024-02-26T11:51:57;99740.00;;;16.10
70668;BMP280;58242;51.250;-1.118;2024-02-26T11:57:30;99746.78;;;15.98
70668;BMP280;58242;51.250;-1.118;2024-02-26T12:02:49;99762.63;;;15.77
70668;BMP280;58242;51.250;-1.118;2024-02-26T12:05:20;99760.31;;;15.79
70668;BMP280;58242;51.250;-1.118;2024-02-26T12:07:50;99758.47;;;15.83
70668;BMP280;58242;51.250;-1.118;2024-02-26T12:10:28;99763.03;;;15.79
70668;BMP280;58242;51.250;-1.118;2024-02-26T12:13:00;99773.41;;;15.77
70668;BMP280;58242;51.250;-1.118;2024-02-26T12:15:36;99773.41;;;15.77
70668;BMP280;58242;51.250;-1.118;2024-02-26T12:18:04;99758.38;;;15.76
70668;BMP280;58242;51.250;-1.118;2024-02-26T12:20:30;99774.22;;;15.81
70668;BMP280;58242;51.250;-1.118;2024-02-26T12:22:56;99771.94;;;15.83
70668;BMP280;58242;51.250;-1.118;2024-02-26T12:25:24;99777.31;;;15.83
70668;BMP280;58242;51.250;-1.118;2024-02-26T12:27:51;99769.16;;;15.76
70668;BMP280;58242;51.250;-1.118;2024-02-26T12:30:16;99776.00;;;15.71
70668;BMP280;58242;51.250;-1.118;2024-02-26T12:32:43;99784.88;;;15.71
70668;BMP280;58242;51.250;-1.118;2024-02-26T12:35:08;99781.41;;;15.96
70668;BMP280;58242;51.250;-1.118;2024-02-26T12:37:34;99787.38;;;16.40
70668;BMP280;58242;51.250;-1.118;2024-02-26T12:40:04;99788.28;;;16.83
70668;BMP280;58242;51.250;-1.118;2024-02-26T12:42:32;99789.22;;;17.36
70668;BMP280;58242;51.250;-1.118;2024-02-26T12:44:58;99786.44;;;17.71
70668;BMP280;58242;51.250;-1.118;2024-02-26T12:47:24;99797.09;;;18.03
70668;BMP280;58242;51.250;-1.118;2024-02-26T12:49:49;99777.50;;;18.23
70668;BMP280;58242;51.250;-1.118;2024-02-26T12:52:16;99804.19;;;18.28
70668;BMP280;58242;51.250;-1.118;2024-02-26T12:54:41;99797.59;;;18.22
70668;BMP280;58242;51.250;-1.118;2024-02-26T12:57:08;99815.72;;;18.15
70668;BMP280;58242;51.250;-1.118;2024-02-26T12:59:34;99806.78;;;18.08
70668;BMP280;58242;51.250;-1.118;2024-02-26T13:02:01;99819.50;;;18.04
70668;BMP280;58242;51.250;-1.118;2024-02-26T13:04:29;99819.16;;;18.09
70668;BMP280;58242;51.250;-1.118;2024-02-26T13:06:55;99842.34;;;18.10
70668;BMP280;58242;51.250;-1.118;2024-02-26T13:09:20;99831.13;;;18.04
70668;BMP280;58242;51.250;-1.118;2024-02-26T13:11:53;99839.56;;;17.96
70668;BMP280;58242;51.250;-1.118;2024-02-26T13:14:20;99844.88;;;17.82
70668;BMP280;58242;51.250;-1.118;2024-02-26T13:16:54;99844.97;;;17.54
70668;BMP280;58242;51.250;-1.118;2024-02-26T13:19:20;99854.41;;;17.31
70668;BMP280;58242;51.250;-1.118;2024-02-26T13:21:45;99858.47;;;17.15
70668;BMP280;58242;51.250;-1.118;2024-02-26T13:24:13;99871.47;;;17.03
70668;BMP280;58242;51.250;-1.118;2024-02-26T13:26:38;99882.19;;;16.96
70668;BMP280;58242;51.250;-1.118;2024-02-26T13:29:04;99865.06;;;16.85
70668;BMP280;58242;51.250;-1.118;2024-02-26T13:31:29;99872.91;;;16.94
70668;BMP280;58242;51.250;-1.118;2024-02-26T13:33:55;99863.97;;;17.22
70668;BMP280;58242;51.250;-1.118;2024-02-26T13:36:22;99879.25;;;17.46
70668;BMP280;58242;51.250;-1.118;2024-02-26T13:38:54;99876.91;;;17.81
70668;BMP280;58242;51.250;-1.118;2024-02-26T13:41:20;99864.44;;;18.18
70668;BMP280;58242;51.250;-1.118;2024-02-26T13:43:46;99880.41;;;18.37
70668;BMP280;58242;51.250;-1.118;2024-02-26T13:46:12;99879.25;;;18.38
70668;BMP280;58242;51.250;-1.118;2024-02-26T13:48:39;99879.63;;;18.40
70668;BMP280;58242;51.250;-1.118;2024-02-26T13:51:05;99878.41;;;18.27
70668;BMP280;58242;51.250;-1.118;2024-02-26T13:53:30;99887.53;;;18.06
70668;BMP280;58242;51.250;-1.118;2024-02-26T13:55:55;99886.22;;;17.86
70668;BMP280;58242;51.250;-1.118;2024-02-26T13:58:24;99893.84;;;17.78